Terminal Aerodrome Forecast
Issued by NWS

Home | Current Version | Previous Version | Text Only | Print | Product List | Glossary On
Versions: 1 2 3 4 5 6 7 8 9 10 11 12
000
FTUS45 KRIW 051720
TAFCPR
TAF
KCPR 051720Z 0518/0618 36014G20KT P6SM VCTS SCT035CB BKN060
     FM060200 01013KT 4SM -SHRA BR SCT009 OVC015
     FM061600 05014KT 5SM -SHRA SCT009 OVC020=

USA.gov is the U.S. government's official web portal to all federal, state and local government web resources and services.